Rosebud Indian Reservation, South Dakota
Current Conditions -  °F | °C
As of 1:52 AM on Friday 21 Nov 2014 (Local Time) from KVTN Reporting Station
Clear Clear  
Wind Chill: 17°   Ceiling: Unl
Heat Index: 28°   Visibility: 10mi
Dew Point: 21°   Wind: 15mph
Humidity: 75%   Direction: 200°SSW
Pressure: 29.96"   Gusts: NA
Location:  43.2328°N, 100.853°W
Report Text: KVTN 210752Z AUTO 20013KT 10SM CLR M02/M06 A2996 RMK AO2 SLP171 T10221061
Loading
Personal Weather Stations






























Interactive Weather Map New forecast layout! Learn more

10-Day Weather Forecast

Advertisements
Track Severe Weather on mobile